createdAt,value
2023-03-15T00:01:27.350Z,61.45
2023-03-15T00:04:37.159Z,61.18
2023-03-15T00:07:41.913Z,61.11
2023-03-15T00:10:45.887Z,61.48
2023-03-15T00:13:48.258Z,61.66
2023-03-15T00:16:50.577Z,61.71
2023-03-15T00:19:55.943Z,61.31
2023-03-15T00:22:58.233Z,61.08
2023-03-15T00:26:00.577Z,61.43
2023-03-15T00:29:06.128Z,61.68
2023-03-15T00:32:08.424Z,60.87
2023-03-15T00:35:13.112Z,62.33
2023-03-15T00:38:17.749Z,59.58
2023-03-15T00:41:24.313Z,60.57
2023-03-15T00:44:27.694Z,59.79
2023-03-15T00:47:29.978Z,60.19
2023-03-15T00:50:34.498Z,59.54
2023-03-15T00:53:38.072Z,60.02
2023-03-15T00:56:43.277Z,59.40
2023-03-15T00:59:53.153Z,60.80
2023-03-15T01:02:58.201Z,59.40
2023-03-15T01:06:07.417Z,59.06
2023-03-15T01:09:12.486Z,59.34
2023-03-15T01:12:20.219Z,59.87
2023-03-15T01:15:27.357Z,58.92
2023-03-15T01:18:29.965Z,58.71
2023-03-15T01:21:33.027Z,58.84
2023-03-15T01:24:35.310Z,59.37
2023-03-15T01:27:37.975Z,58.58
2023-03-15T01:30:54.953Z,58.57
2023-03-15T01:34:02.332Z,58.05
2023-03-15T01:37:07.729Z,58.21
2023-03-15T01:40:18.461Z,57.84
2023-03-15T01:43:26.544Z,58.44
2023-03-15T01:46:34.486Z,59.13
2023-03-15T01:49:57.982Z,58.56
2023-03-15T01:53:03.044Z,58.22
2023-03-15T01:56:11.418Z,58.26
2023-03-15T01:59:19.877Z,57.81
2023-03-15T02:02:28.934Z,58.13
2023-03-15T02:05:39.676Z,57.66
2023-03-15T02:08:46.856Z,57.26
2023-03-15T02:11:49.345Z,58.19
2023-03-15T02:14:56.000Z,57.12
2023-03-15T02:18:00.750Z,57.42
2023-03-15T02:21:15.260Z,57.95
2023-03-15T02:24:32.592Z,57.43
2023-03-15T02:27:38.129Z,57.95
2023-03-15T02:30:41.597Z,57.71
2023-03-15T02:33:49.599Z,57.84
2023-03-15T02:36:52.633Z,58.13
2023-03-15T02:39:55.009Z,58.14
2023-03-15T02:43:11.447Z,58.43
2023-03-15T02:46:14.813Z,58.33
2023-03-15T02:49:21.771Z,58.72
2023-03-15T02:52:26.561Z,59.01
2023-03-15T02:55:32.684Z,59.34
2023-03-15T02:58:35.005Z,59.17
2023-03-15T03:01:37.707Z,58.80
2023-03-15T03:04:41.611Z,59.04
2023-03-15T03:07:44.415Z,59.47
2023-03-15T03:10:47.649Z,59.09
2023-03-15T03:13:50.001Z,59.10
2023-03-15T03:16:57.530Z,59.25
2023-03-15T03:19:59.891Z,59.01
2023-03-15T03:23:11.441Z,58.85
2023-03-15T03:26:16.668Z,59.86
2023-03-15T03:29:20.486Z,58.91
2023-03-15T03:32:26.627Z,59.00
2023-03-15T03:35:28.998Z,59.17
2023-03-15T03:38:33.863Z,58.67
2023-03-15T03:41:37.887Z,58.86
2023-03-15T03:44:41.412Z,58.72
2023-03-15T03:47:43.989Z,58.89
2023-03-15T03:50:46.328Z,58.73
2023-03-15T03:53:53.484Z,58.35
2023-03-15T03:56:55.838Z,58.68
2023-03-15T04:00:07.277Z,58.23
2023-03-15T04:03:17.029Z,57.58
2023-03-15T04:06:26.137Z,57.38
2023-03-15T04:09:31.160Z,57.76
2023-03-15T04:12:36.175Z,57.11
2023-03-15T04:15:41.846Z,56.75
2023-03-15T04:18:46.229Z,56.18
2023-03-15T04:21:48.618Z,56.27
2023-03-15T04:25:13.858Z,55.80
2023-03-15T04:28:30.350Z,55.46
2023-03-15T04:31:45.909Z,56.19
2023-03-15T04:34:59.953Z,55.67
2023-03-15T04:38:14.583Z,54.88
2023-03-15T04:41:39.559Z,54.54
2023-03-15T04:45:02.108Z,54.20
2023-03-15T04:48:16.738Z,54.17
2023-03-15T04:51:38.780Z,53.78
2023-03-15T04:54:56.113Z,54.40
2023-03-15T04:58:11.543Z,54.97
2023-03-15T05:01:20.080Z,54.62
2023-03-15T05:04:35.350Z,54.88
2023-03-15T05:07:54.166Z,54.61
2023-03-15T05:11:09.191Z,54.54
2023-03-15T05:14:36.643Z,54.52
2023-03-15T05:17:58.265Z,55.14
2023-03-15T05:21:03.039Z,55.21
2023-03-15T05:24:15.437Z,55.54
2023-03-15T05:27:37.273Z,55.75
2023-03-15T05:31:02.906Z,55.76
2023-03-15T05:34:28.271Z,56.03
2023-03-15T05:37:35.885Z,56.50
2023-03-15T05:41:02.893Z,56.93
2023-03-15T05:44:16.983Z,56.46
2023-03-15T05:47:54.556Z,57.11
2023-03-15T05:51:10.654Z,57.06
2023-03-15T05:54:38.315Z,57.17
2023-03-15T05:58:08.883Z,58.22
2023-03-15T06:01:21.091Z,58.40
2023-03-15T06:04:41.586Z,57.86
2023-03-15T06:07:51.390Z,58.71
2023-03-15T06:10:54.852Z,59.42
2023-03-15T06:13:57.235Z,59.63
2023-03-15T06:17:28.687Z,59.76
2023-03-15T06:20:32.018Z,60.18
2023-03-15T06:23:42.446Z,60.18
2023-03-15T06:26:45.516Z,60.57
2023-03-15T06:29:50.111Z,60.78
2023-03-15T06:32:55.516Z,61.20
2023-03-15T06:36:05.121Z,61.34
2023-03-15T06:39:12.522Z,60.91
2023-03-15T06:42:17.798Z,60.56
2023-03-15T06:45:20.580Z,60.70
2023-03-15T06:48:23.878Z,60.76
2023-03-15T06:51:26.257Z,60.43
2023-03-15T06:54:30.796Z,60.17
2023-03-15T06:57:38.013Z,60.31
2023-03-15T07:00:41.599Z,60.56
2023-03-15T07:03:43.864Z,59.64
2023-03-15T07:06:46.248Z,59.21
2023-03-15T07:09:49.016Z,59.34
2023-03-15T07:12:53.752Z,59.49
2023-03-15T07:15:56.752Z,59.58
2023-03-15T07:19:02.339Z,59.16
2023-03-15T07:22:04.834Z,59.68
2023-03-15T07:25:10.290Z,59.29
2023-03-15T07:28:15.621Z,59.09
2023-03-15T07:31:23.036Z,59.72
2023-03-15T07:34:30.709Z,58.83
2023-03-15T07:37:35.175Z,59.00
2023-03-15T07:40:37.409Z,58.93
2023-03-15T07:43:39.715Z,58.45
2023-03-15T07:46:48.536Z,58.83
2023-03-15T07:49:53.608Z,57.99
2023-03-15T07:52:57.202Z,57.80
2023-03-15T07:55:59.581Z,57.76
2023-03-15T07:59:04.029Z,57.48
2023-03-15T08:02:09.110Z,56.36
2023-03-15T08:05:11.444Z,56.54
2023-03-15T08:08:13.775Z,56.05
2023-03-15T08:11:18.829Z,55.71
2023-03-15T08:14:24.607Z,55.08
2023-03-15T08:17:29.541Z,54.78
2023-03-15T08:20:33.903Z,53.86
2023-03-15T08:23:36.266Z,53.78
2023-03-15T08:26:38.534Z,53.23
2023-03-15T08:29:43.543Z,53.37
2023-03-15T08:32:47.563Z,53.14
2023-03-15T08:35:56.495Z,53.40
2023-03-15T08:39:02.512Z,52.98
2023-03-15T08:42:05.362Z,52.75
2023-03-15T08:45:09.137Z,52.25
2023-03-15T08:48:14.452Z,52.02
2023-03-15T08:51:16.762Z,52.22
2023-03-15T08:54:19.358Z,51.68
2023-03-15T08:57:26.017Z,52.28
2023-03-15T09:00:30.474Z,51.31
2023-03-15T09:03:35.360Z,51.23
2023-03-15T09:06:38.665Z,51.57
2023-03-15T09:09:48.079Z,51.47
2023-03-15T09:12:54.621Z,50.91
2023-03-15T09:15:59.677Z,50.75
2023-03-15T09:19:07.269Z,50.42
2023-03-15T09:22:16.913Z,49.90
2023-03-15T09:25:27.531Z,50.24
2023-03-15T09:28:32.058Z,49.78
2023-03-15T09:31:34.477Z,50.54
2023-03-15T09:34:41.835Z,50.00
2023-03-15T09:37:48.092Z,49.84
2023-03-15T09:40:50.924Z,49.96
2023-03-15T09:44:06.734Z,50.03
2023-03-15T09:47:14.969Z,50.37
2023-03-15T09:50:26.340Z,50.10
2023-03-15T09:53:41.441Z,49.61
2023-03-15T09:57:04.930Z,50.01
2023-03-15T10:00:14.677Z,50.23
2023-03-15T10:03:35.984Z,49.96
2023-03-15T10:06:47.424Z,49.92
2023-03-15T10:09:49.620Z,49.97
2023-03-15T10:13:32.763Z,49.11
2023-03-15T10:16:46.445Z,49.98
2023-03-15T10:20:01.322Z,49.21
2023-03-15T10:23:03.507Z,49.24
2023-03-15T10:26:14.214Z,48.97
2023-03-15T10:29:20.058Z,48.37
2023-03-15T10:32:30.211Z,48.75
2023-03-15T10:35:33.055Z,48.10
2023-03-15T10:38:42.805Z,47.91
2023-03-15T10:41:50.253Z,47.84
2023-03-15T10:44:52.632Z,48.11
2023-03-15T10:48:00.430Z,47.21
2023-03-15T10:51:18.835Z,47.32
2023-03-15T10:54:25.454Z,47.27
2023-03-15T10:57:34.276Z,47.08
2023-03-15T11:00:38.932Z,46.11
2023-03-15T11:03:44.688Z,46.21
2023-03-15T11:07:00.828Z,45.79
2023-03-15T11:10:06.384Z,45.37
2023-03-15T11:13:24.784Z,45.82
2023-03-15T11:16:36.685Z,45.31
2023-03-15T11:19:45.616Z,45.65
2023-03-15T11:22:52.165Z,45.68
2023-03-15T11:25:57.201Z,44.50
2023-03-15T11:29:04.335Z,44.68
2023-03-15T11:32:18.905Z,44.18
2023-03-15T11:35:39.579Z,44.64
2023-03-15T11:38:47.722Z,44.44
2023-03-15T11:41:57.417Z,44.07
2023-03-15T11:45:09.422Z,43.80
2023-03-15T11:48:19.796Z,42.47
2023-03-15T11:51:22.270Z,43.54
2023-03-15T11:54:28.820Z,42.82
2023-03-15T11:57:43.207Z,42.76
2023-03-15T12:00:53.805Z,43.16
2023-03-15T12:04:33.107Z,42.49
2023-03-15T12:07:38.146Z,41.83
2023-03-15T12:10:46.843Z,42.82
2023-03-15T12:13:58.331Z,42.30
2023-03-15T12:17:28.570Z,42.53
2023-03-15T12:20:37.416Z,43.12
2023-03-15T12:23:39.679Z,41.75
2023-03-15T12:26:46.589Z,40.73
2023-03-15T12:30:01.641Z,40.61
2023-03-15T12:33:15.629Z,41.14
2023-03-15T12:36:35.409Z,41.03
2023-03-15T12:39:39.711Z,40.40
2023-03-15T12:42:41.956Z,40.89
2023-03-15T12:45:45.667Z,40.20
2023-03-15T12:49:11.567Z,39.61
2023-03-15T12:52:16.762Z,39.45
2023-03-15T12:55:19.230Z,39.12
2023-03-15T12:58:27.639Z,39.26
2023-03-15T13:01:34.979Z,39.38
2023-03-15T13:04:37.312Z,38.91
2023-03-15T13:08:01.375Z,38.88
2023-03-15T13:11:25.774Z,37.84
2023-03-15T13:14:44.364Z,37.00
2023-03-15T13:17:58.811Z,37.59
2023-03-15T13:21:19.373Z,37.28
2023-03-15T13:24:47.664Z,37.32
2023-03-15T13:27:58.949Z,37.17
2023-03-15T13:31:10.217Z,37.06
2023-03-15T13:34:24.745Z,36.19
2023-03-15T13:37:29.472Z,36.70
2023-03-15T13:40:31.735Z,36.48
2023-03-15T13:43:37.216Z,36.46
2023-03-15T13:46:40.438Z,36.02
2023-03-15T13:49:45.879Z,36.20
2023-03-15T13:52:50.839Z,36.07
2023-03-15T13:55:57.260Z,35.49
2023-03-15T13:59:04.638Z,35.74
2023-03-15T14:02:26.862Z,35.21
2023-03-15T14:05:32.978Z,35.54
2023-03-15T14:08:39.188Z,35.05
2023-03-15T14:11:41.607Z,34.67
2023-03-15T14:14:53.025Z,34.48
2023-03-15T14:18:38.765Z,34.43
2023-03-15T14:21:44.583Z,34.92
2023-03-15T14:24:54.449Z,34.49
2023-03-15T14:28:01.657Z,34.84
2023-03-15T14:31:06.295Z,34.90
2023-03-15T14:34:23.791Z,34.95
2023-03-15T14:37:35.130Z,35.57
2023-03-15T14:40:39.239Z,34.42
2023-03-15T14:43:41.561Z,34.60
2023-03-15T14:46:46.073Z,35.32
2023-03-15T14:49:48.428Z,35.56
2023-03-15T14:52:51.362Z,35.37
2023-03-15T14:55:53.735Z,35.77
2023-03-15T14:58:58.284Z,35.97
2023-03-15T15:02:02.869Z,35.30
2023-03-15T15:05:19.955Z,35.31
2023-03-15T15:08:24.976Z,36.08
2023-03-15T15:11:33.236Z,35.57
2023-03-15T15:14:35.592Z,35.65
2023-03-15T15:17:37.759Z,35.01
2023-03-15T15:20:41.937Z,35.53
2023-03-15T15:23:58.041Z,35.74
2023-03-15T15:27:07.567Z,35.54
2023-03-15T15:30:16.327Z,34.91
2023-03-15T15:33:18.907Z,36.13
2023-03-15T15:36:32.387Z,35.27
2023-03-15T15:39:34.892Z,35.14
2023-03-15T15:42:39.534Z,35.06
2023-03-15T15:45:41.971Z,34.79
2023-03-15T15:48:47.065Z,34.78
2023-03-15T15:51:49.950Z,34.61
2023-03-15T15:54:52.706Z,34.60
2023-03-15T15:57:55.143Z,34.78
2023-03-15T16:01:01.178Z,34.45
2023-03-15T16:04:03.792Z,34.43
2023-03-15T16:07:07.079Z,34.30
2023-03-15T16:10:20.320Z,34.32
2023-03-15T16:13:25.066Z,34.02
2023-03-15T16:16:27.578Z,33.84
2023-03-15T16:19:30.036Z,33.90
2023-03-15T16:22:37.081Z,33.77
2023-03-15T16:25:41.743Z,34.07
2023-03-15T16:28:44.179Z,33.87
2023-03-15T16:31:47.314Z,33.58
2023-03-15T16:34:58.660Z,33.43
2023-03-15T16:38:01.931Z,33.94
2023-03-15T16:41:06.544Z,33.23
2023-03-15T16:44:14.277Z,33.51
2023-03-15T16:47:19.441Z,33.32
2023-03-15T16:50:26.441Z,33.27
2023-03-15T16:53:37.297Z,33.00
2023-03-15T16:56:40.841Z,32.47
2023-03-15T16:59:43.101Z,32.99
2023-03-15T17:02:47.345Z,32.88
2023-03-15T17:05:52.485Z,33.34
2023-03-15T17:09:10.500Z,32.99
2023-03-15T17:12:21.186Z,33.67
2023-03-15T17:15:25.859Z,33.71
2023-03-15T17:18:30.034Z,34.24
2023-03-15T17:21:35.863Z,34.20
2023-03-15T17:24:40.610Z,34.44
2023-03-15T17:27:44.923Z,34.79
2023-03-15T17:30:48.501Z,35.08
2023-03-15T17:33:54.264Z,35.06
2023-03-15T17:36:58.825Z,34.63
2023-03-15T17:40:10.786Z,35.07
2023-03-15T17:43:14.678Z,35.32
2023-03-15T17:46:29.914Z,35.23
2023-03-15T17:49:32.330Z,34.67
2023-03-15T17:52:37.145Z,35.24
2023-03-15T17:55:42.023Z,35.09
2023-03-15T17:58:47.060Z,35.20
2023-03-15T18:01:49.567Z,34.99
2023-03-15T18:04:51.825Z,34.58
2023-03-15T18:08:01.629Z,34.05
2023-03-15T18:11:17.193Z,34.73
2023-03-15T18:14:19.530Z,34.99
2023-03-15T18:17:26.254Z,34.73
2023-03-15T18:20:31.243Z,34.95
2023-03-15T18:23:33.615Z,34.48
2023-03-15T18:26:40.660Z,35.60
2023-03-15T18:29:45.381Z,34.91
2023-03-15T18:32:47.854Z,34.52
2023-03-15T18:35:50.156Z,34.90
2023-03-15T18:38:52.633Z,35.47
2023-03-15T18:41:57.217Z,34.87
2023-03-15T18:44:59.426Z,35.12
2023-03-15T18:48:04.526Z,35.33
2023-03-15T18:51:12.182Z,35.04
2023-03-15T18:54:17.905Z,35.07
2023-03-15T18:57:22.544Z,34.81
2023-03-15T19:00:29.558Z,35.12
2023-03-15T19:03:31.983Z,35.01
2023-03-15T19:06:35.581Z,34.81
2023-03-15T19:09:37.837Z,35.39
2023-03-15T19:12:48.171Z,35.15
2023-03-15T19:15:50.721Z,34.75
2023-03-15T19:18:55.513Z,34.87
2023-03-15T19:21:57.876Z,35.01
2023-03-15T19:25:03.887Z,34.99
2023-03-15T19:28:11.987Z,34.67
2023-03-15T19:31:14.337Z,35.04
2023-03-15T19:34:18.914Z,35.02
2023-03-15T19:37:24.322Z,34.71
2023-03-15T19:40:28.782Z,34.55
2023-03-15T19:43:33.256Z,34.47
2023-03-15T19:46:38.972Z,34.16
2023-03-15T19:49:43.664Z,34.17
2023-03-15T19:52:46.224Z,34.37
2023-03-15T19:55:48.781Z,34.17
2023-03-15T19:58:57.088Z,34.47
2023-03-15T20:01:59.407Z,34.42
2023-03-15T20:05:04.143Z,34.97
2023-03-15T20:08:08.460Z,34.60
2023-03-15T20:11:14.939Z,33.71
2023-03-15T20:14:18.785Z,34.21
2023-03-15T20:17:21.100Z,34.11
2023-03-15T20:20:23.915Z,34.19
2023-03-15T20:23:26.475Z,34.87
2023-03-15T20:26:31.416Z,34.35
2023-03-15T20:29:35.949Z,34.77
2023-03-15T20:32:38.659Z,34.77
2023-03-15T20:35:43.339Z,35.45
2023-03-15T20:38:46.349Z,35.02
2023-03-15T20:41:48.905Z,35.18
2023-03-15T20:44:51.402Z,35.76
2023-03-15T20:47:56.806Z,35.67
2023-03-15T20:51:04.591Z,35.91
2023-03-15T20:54:09.164Z,35.99
2023-03-15T20:57:16.340Z,35.88
2023-03-15T21:00:20.064Z,36.59
2023-03-15T21:03:22.772Z,36.21
2023-03-15T21:06:27.789Z,36.71
2023-03-15T21:09:36.202Z,36.72
2023-03-15T21:12:38.507Z,36.57
2023-03-15T21:15:46.464Z,36.55
2023-03-15T21:18:54.941Z,36.93
2023-03-15T21:21:59.023Z,36.87
2023-03-15T21:25:02.844Z,37.67
2023-03-15T21:28:05.288Z,38.07
2023-03-15T21:31:08.191Z,37.83
2023-03-15T21:34:13.241Z,38.08
2023-03-15T21:37:15.625Z,37.97
2023-03-15T21:40:18.071Z,38.39
2023-03-15T21:43:20.690Z,38.43
2023-03-15T21:46:23.870Z,38.50
2023-03-15T21:49:27.334Z,38.59
2023-03-15T21:52:32.579Z,39.10
2023-03-15T21:55:35.000Z,38.96
2023-03-15T21:58:40.014Z,39.25
2023-03-15T22:01:42.304Z,39.07
2023-03-15T22:04:44.833Z,39.00
2023-03-15T22:07:49.633Z,39.04
2023-03-15T22:10:56.265Z,39.48
2023-03-15T22:14:00.975Z,39.34
2023-03-15T22:17:04.764Z,39.23
2023-03-15T22:20:16.994Z,39.64
2023-03-15T22:23:22.517Z,39.17
2023-03-15T22:26:25.031Z,38.97
2023-03-15T22:29:27.831Z,39.38
2023-03-15T22:32:33.120Z,39.46
2023-03-15T22:35:37.952Z,39.70
2023-03-15T22:38:42.749Z,39.36
2023-03-15T22:41:47.290Z,39.20
2023-03-15T22:44:51.855Z,39.97
2023-03-15T22:47:54.443Z,39.87
2023-03-15T22:51:03.686Z,39.86
2023-03-15T22:54:09.496Z,39.35
2023-03-15T22:57:14.133Z,39.36
2023-03-15T23:00:22.016Z,39.30
2023-03-15T23:03:24.562Z,39.60
2023-03-15T23:06:29.353Z,39.26
2023-03-15T23:09:36.914Z,39.35
2023-03-15T23:12:43.031Z,39.34
2023-03-15T23:15:47.646Z,39.81
2023-03-15T23:18:50.034Z,39.66
2023-03-15T23:21:54.605Z,39.61
2023-03-15T23:24:58.241Z,39.26
2023-03-15T23:28:00.567Z,39.61
2023-03-15T23:31:05.221Z,39.30
2023-03-15T23:34:08.776Z,40.08
2023-03-15T23:37:15.252Z,40.20
2023-03-15T23:40:17.836Z,39.90
2023-03-15T23:43:28.299Z,40.31
2023-03-15T23:46:36.204Z,40.26
2023-03-15T23:49:38.531Z,40.47
2023-03-15T23:52:42.991Z,40.84
2023-03-15T23:55:45.471Z,41.33
2023-03-15T23:58:52.800Z,41.47
